sensor_id;sensor_type;location;lat;lon;timestamp;P1;durP1;ratioP1;P2;durP2;ratioP2
67737;SDS011;54534;43.612;1.572;2023-02-28T00:02:13;5.17;;;1.50;;
67737;SDS011;54534;43.612;1.572;2023-02-28T00:04:38;3.20;;;1.67;;
67737;SDS011;54534;43.612;1.572;2023-02-28T00:07:04;3.50;;;2.00;;
67737;SDS011;54534;43.612;1.572;2023-02-28T00:09:29;2.93;;;1.63;;
67737;SDS011;54534;43.612;1.572;2023-02-28T00:11:54;3.43;;;1.60;;
67737;SDS011;54534;43.612;1.572;2023-02-28T00:14:20;2.87;;;1.53;;
67737;SDS011;54534;43.612;1.572;2023-02-28T00:16:45;3.37;;;1.50;;
67737;SDS011;54534;43.612;1.572;2023-02-28T00:19:11;5.80;;;1.50;;
67737;SDS011;54534;43.612;1.572;2023-02-28T00:21:38;2.43;;;1.40;;
67737;SDS011;54534;43.612;1.572;2023-02-28T00:24:06;3.37;;;1.63;;
67737;SDS011;54534;43.612;1.572;2023-02-28T00:26:32;1.57;;;1.10;;
67737;SDS011;54534;43.612;1.572;2023-02-28T00:28:57;4.83;;;1.70;;
67737;SDS011;54534;43.612;1.572;2023-02-28T00:31:23;4.07;;;1.73;;
67737;SDS011;54534;43.612;1.572;2023-02-28T00:33:48;9.13;;;1.17;;
67737;SDS011;54534;43.612;1.572;2023-02-28T00:36:14;1.87;;;1.20;;
67737;SDS011;54534;43.612;1.572;2023-02-28T00:38:39;1.50;;;1.40;;
67737;SDS011;54534;43.612;1.572;2023-02-28T00:41:06;2.83;;;1.50;;
67737;SDS011;54534;43.612;1.572;2023-02-28T00:43:33;2.27;;;1.60;;
67737;SDS011;54534;43.612;1.572;2023-02-28T00:46:00;3.07;;;1.50;;
67737;SDS011;54534;43.612;1.572;2023-02-28T00:48:26;1.83;;;1.40;;
67737;SDS011;54534;43.612;1.572;2023-02-28T00:50:51;1.53;;;1.20;;
67737;SDS011;54534;43.612;1.572;2023-02-28T00:53:17;1.90;;;1.00;;
67737;SDS011;54534;43.612;1.572;2023-02-28T00:55:42;2.90;;;1.63;;
67737;SDS011;54534;43.612;1.572;2023-02-28T00:58:08;2.40;;;1.47;;
67737;SDS011;54534;43.612;1.572;2023-02-28T01:00:33;1.40;;;0.93;;
67737;SDS011;54534;43.612;1.572;2023-02-28T01:02:58;3.33;;;1.37;;
67737;SDS011;54534;43.612;1.572;2023-02-28T01:05:24;3.07;;;1.53;;
67737;SDS011;54534;43.612;1.572;2023-02-28T01:07:49;1.87;;;1.20;;
67737;SDS011;54534;43.612;1.572;2023-02-28T01:10:15;2.27;;;1.00;;
67737;SDS011;54534;43.612;1.572;2023-02-28T01:12:40;3.17;;;1.30;;
67737;SDS011;54534;43.612;1.572;2023-02-28T01:15:06;2.20;;;1.10;;
67737;SDS011;54534;43.612;1.572;2023-02-28T01:17:31;1.20;;;1.10;;
67737;SDS011;54534;43.612;1.572;2023-02-28T01:19:57;1.30;;;1.20;;
67737;SDS011;54534;43.612;1.572;2023-02-28T01:22:22;2.33;;;1.40;;
67737;SDS011;54534;43.612;1.572;2023-02-28T01:24:48;1.20;;;1.10;;
67737;SDS011;54534;43.612;1.572;2023-02-28T01:27:13;1.53;;;1.10;;
67737;SDS011;54534;43.612;1.572;2023-02-28T01:29:39;1.87;;;1.30;;
67737;SDS011;54534;43.612;1.572;2023-02-28T01:32:04;1.20;;;1.10;;
67737;SDS011;54534;43.612;1.572;2023-02-28T01:34:29;1.40;;;1.10;;
67737;SDS011;54534;43.612;1.572;2023-02-28T01:36:55;2.30;;;1.03;;
67737;SDS011;54534;43.612;1.572;2023-02-28T01:39:20;1.70;;;1.17;;
67737;SDS011;54534;43.612;1.572;2023-02-28T01:41:46;2.47;;;1.17;;
67737;SDS011;54534;43.612;1.572;2023-02-28T01:47:14;1.40;;;1.20;;
67737;SDS011;54534;43.612;1.572;2023-02-28T01:49:40;1.47;;;1.20;;
67737;SDS011;54534;43.612;1.572;2023-02-28T01:52:05;2.07;;;1.10;;
67737;SDS011;54534;43.612;1.572;2023-02-28T01:54:33;2.13;;;1.17;;
67737;SDS011;54534;43.612;1.572;2023-02-28T01:57:06;1.90;;;1.17;;
67737;SDS011;54534;43.612;1.572;2023-02-28T01:59:37;1.47;;;1.03;;
67737;SDS011;54534;43.612;1.572;2023-02-28T02:02:13;1.37;;;1.20;;
67737;SDS011;54534;43.612;1.572;2023-02-28T02:04:58;3.43;;;1.10;;
67737;SDS011;54534;43.612;1.572;2023-02-28T02:07:29;3.30;;;1.20;;
67737;SDS011;54534;43.612;1.572;2023-02-28T02:10:05;1.83;;;1.20;;
67737;SDS011;54534;43.612;1.572;2023-02-28T02:15:55;2.17;;;1.17;;
67737;SDS011;54534;43.612;1.572;2023-02-28T02:18:32;2.20;;;1.50;;
67737;SDS011;54534;43.612;1.572;2023-02-28T02:26:47;1.83;;;1.17;;
67737;SDS011;54534;43.612;1.572;2023-02-28T02:38:52;1.30;;;1.00;;
67737;SDS011;54534;43.612;1.572;2023-02-28T02:44:17;1.27;;;1.10;;
67737;SDS011;54534;43.612;1.572;2023-02-28T02:46:47;1.73;;;1.20;;
67737;SDS011;54534;43.612;1.572;2023-02-28T02:49:26;3.73;;;1.40;;
67737;SDS011;54534;43.612;1.572;2023-02-28T02:51:55;4.18;;;1.02;;
67737;SDS011;54534;43.612;1.572;2023-02-28T02:54:24;1.43;;;1.20;;
67737;SDS011;54534;43.612;1.572;2023-02-28T02:56:54;1.60;;;1.10;;
67737;SDS011;54534;43.612;1.572;2023-02-28T02:59:22;1.30;;;1.20;;
67737;SDS011;54534;43.612;1.572;2023-02-28T03:01:50;1.23;;;1.03;;
67737;SDS011;54534;43.612;1.572;2023-02-28T03:04:24;1.50;;;1.10;;
67737;SDS011;54534;43.612;1.572;2023-02-28T03:06:53;1.77;;;1.05;;
67737;SDS011;54534;43.612;1.572;2023-02-28T03:09:19;2.17;;;1.37;;
67737;SDS011;54534;43.612;1.572;2023-02-28T03:11:48;2.27;;;1.60;;
67737;SDS011;54534;43.612;1.572;2023-02-28T03:22:07;2.30;;;1.30;;
67737;SDS011;54534;43.612;1.572;2023-02-28T03:24:55;1.20;;;1.10;;
67737;SDS011;54534;43.612;1.572;2023-02-28T03:27:27;2.13;;;1.30;;
67737;SDS011;54534;43.612;1.572;2023-02-28T03:32:34;2.47;;;1.57;;
67737;SDS011;54534;43.612;1.572;2023-02-28T03:35:09;1.17;;;1.07;;
67737;SDS011;54534;43.612;1.572;2023-02-28T03:37:37;1.73;;;1.10;;
67737;SDS011;54534;43.612;1.572;2023-02-28T03:40:10;1.88;;;1.20;;
67737;SDS011;54534;43.612;1.572;2023-02-28T03:42:39;2.20;;;1.30;;
67737;SDS011;54534;43.612;1.572;2023-02-28T03:45:12;2.45;;;1.30;;
67737;SDS011;54534;43.612;1.572;2023-02-28T03:47:44;1.40;;;1.30;;
67737;SDS011;54534;43.612;1.572;2023-02-28T03:50:24;1.70;;;1.20;;
67737;SDS011;54534;43.612;1.572;2023-02-28T03:55:26;1.10;;;1.00;;
67737;SDS011;54534;43.612;1.572;2023-02-28T03:58:33;1.30;;;1.20;;
67737;SDS011;54534;43.612;1.572;2023-02-28T04:01:06;1.27;;;1.17;;
67737;SDS011;54534;43.612;1.572;2023-02-28T04:03:37;1.52;;;1.15;;
67737;SDS011;54534;43.612;1.572;2023-02-28T04:06:03;1.83;;;1.35;;
67737;SDS011;54534;43.612;1.572;2023-02-28T04:08:32;1.27;;;1.20;;
67737;SDS011;54534;43.612;1.572;2023-02-28T04:10:59;1.37;;;1.20;;
67737;SDS011;54534;43.612;1.572;2023-02-28T04:13:31;1.83;;;1.20;;
67737;SDS011;54534;43.612;1.572;2023-02-28T04:15:57;2.47;;;1.50;;
67737;SDS011;54534;43.612;1.572;2023-02-28T04:18:22;1.27;;;1.10;;
67737;SDS011;54534;43.612;1.572;2023-02-28T04:20:47;1.43;;;1.33;;
67737;SDS011;54534;43.612;1.572;2023-02-28T04:23:13;4.00;;;1.30;;
67737;SDS011;54534;43.612;1.572;2023-02-28T04:25:38;2.00;;;1.43;;
67737;SDS011;54534;43.612;1.572;2023-02-28T04:28:05;1.70;;;1.47;;
67737;SDS011;54534;43.612;1.572;2023-02-28T04:30:31;1.30;;;1.20;;
67737;SDS011;54534;43.612;1.572;2023-02-28T04:32:57;1.43;;;1.30;;
67737;SDS011;54534;43.612;1.572;2023-02-28T04:35:23;1.63;;;1.30;;
67737;SDS011;54534;43.612;1.572;2023-02-28T04:37:48;1.47;;;1.37;;
67737;SDS011;54534;43.612;1.572;2023-02-28T04:40:14;1.40;;;1.30;;
67737;SDS011;54534;43.612;1.572;2023-02-28T04:42:39;2.23;;;1.53;;
67737;SDS011;54534;43.612;1.572;2023-02-28T04:45:05;1.50;;;1.40;;
67737;SDS011;54534;43.612;1.572;2023-02-28T04:47:31;1.90;;;1.40;;
67737;SDS011;54534;43.612;1.572;2023-02-28T04:49:56;1.47;;;1.20;;
67737;SDS011;54534;43.612;1.572;2023-02-28T04:52:22;1.20;;;1.10;;
67737;SDS011;54534;43.612;1.572;2023-02-28T04:54:47;1.20;;;1.20;;
67737;SDS011;54534;43.612;1.572;2023-02-28T04:57:13;1.20;;;1.10;;
67737;SDS011;54534;43.612;1.572;2023-02-28T04:59:38;1.47;;;1.37;;
67737;SDS011;54534;43.612;1.572;2023-02-28T05:02:03;2.03;;;1.43;;
67737;SDS011;54534;43.612;1.572;2023-02-28T05:04:34;1.90;;;1.13;;
67737;SDS011;54534;43.612;1.572;2023-02-28T05:07:01;1.45;;;1.35;;
67737;SDS011;54534;43.612;1.572;2023-02-28T05:09:28;1.30;;;1.20;;
67737;SDS011;54534;43.612;1.572;2023-02-28T05:11:54;1.80;;;1.40;;
67737;SDS011;54534;43.612;1.572;2023-02-28T05:14:19;1.70;;;1.37;;
67737;SDS011;54534;43.612;1.572;2023-02-28T05:16:45;2.90;;;1.20;;
67737;SDS011;54534;43.612;1.572;2023-02-28T05:19:10;2.47;;;1.33;;
67737;SDS011;54534;43.612;1.572;2023-02-28T05:21:37;1.53;;;1.30;;
67737;SDS011;54534;43.612;1.572;2023-02-28T05:24:09;1.87;;;1.70;;
67737;SDS011;54534;43.612;1.572;2023-02-28T05:26:39;1.73;;;1.53;;
67737;SDS011;54534;43.612;1.572;2023-02-28T05:29:06;1.63;;;1.17;;
67737;SDS011;54534;43.612;1.572;2023-02-28T05:31:31;1.33;;;1.10;;
67737;SDS011;54534;43.612;1.572;2023-02-28T05:33:57;1.30;;;1.20;;
67737;SDS011;54534;43.612;1.572;2023-02-28T05:36:23;1.60;;;1.40;;
67737;SDS011;54534;43.612;1.572;2023-02-28T05:38:49;1.90;;;1.47;;
67737;SDS011;54534;43.612;1.572;2023-02-28T05:41:15;1.47;;;1.23;;
67737;SDS011;54534;43.612;1.572;2023-02-28T05:43:41;1.20;;;1.10;;
67737;SDS011;54534;43.612;1.572;2023-02-28T05:46:07;2.17;;;1.80;;
67737;SDS011;54534;43.612;1.572;2023-02-28T05:48:35;3.63;;;1.47;;
67737;SDS011;54534;43.612;1.572;2023-02-28T05:51:01;1.93;;;1.30;;
67737;SDS011;54534;43.612;1.572;2023-02-28T05:53:28;1.40;;;1.20;;
67737;SDS011;54534;43.612;1.572;2023-02-28T05:55:54;1.67;;;1.37;;
67737;SDS011;54534;43.612;1.572;2023-02-28T05:58:19;1.50;;;1.40;;
67737;SDS011;54534;43.612;1.572;2023-02-28T06:00:45;1.40;;;1.30;;
67737;SDS011;54534;43.612;1.572;2023-02-28T06:03:10;1.30;;;1.20;;
67737;SDS011;54534;43.612;1.572;2023-02-28T06:05:36;1.43;;;1.33;;
67737;SDS011;54534;43.612;1.572;2023-02-28T06:08:01;1.70;;;1.50;;
67737;SDS011;54534;43.612;1.572;2023-02-28T06:10:26;16.90;;;1.93;;
67737;SDS011;54534;43.612;1.572;2023-02-28T06:12:52;9.03;;;1.70;;
67737;SDS011;54534;43.612;1.572;2023-02-28T06:15:17;18.50;;;2.40;;
67737;SDS011;54534;43.612;1.572;2023-02-28T06:17:43;8.53;;;1.60;;
67737;SDS011;54534;43.612;1.572;2023-02-28T06:20:09;15.13;;;1.77;;
67737;SDS011;54534;43.612;1.572;2023-02-28T06:22:37;8.30;;;1.80;;
67737;SDS011;54534;43.612;1.572;2023-02-28T06:25:04;2.63;;;2.00;;
67737;SDS011;54534;43.612;1.572;2023-02-28T06:27:31;6.83;;;1.67;;
67737;SDS011;54534;43.612;1.572;2023-02-28T06:29:57;2.03;;;1.57;;
67737;SDS011;54534;43.612;1.572;2023-02-28T06:32:22;4.20;;;2.03;;
67737;SDS011;54534;43.612;1.572;2023-02-28T06:34:48;6.00;;;1.60;;
67737;SDS011;54534;43.612;1.572;2023-02-28T06:37:13;4.60;;;1.40;;
67737;SDS011;54534;43.612;1.572;2023-02-28T06:39:39;1.40;;;1.10;;
67737;SDS011;54534;43.612;1.572;2023-02-28T06:42:05;1.20;;;1.10;;
67737;SDS011;54534;43.612;1.572;2023-02-28T06:44:30;2.33;;;1.77;;
67737;SDS011;54534;43.612;1.572;2023-02-28T06:47:00;2.53;;;1.73;;
67737;SDS011;54534;43.612;1.572;2023-02-28T06:49:30;1.63;;;1.23;;
67737;SDS011;54534;43.612;1.572;2023-02-28T06:51:56;2.07;;;1.40;;
67737;SDS011;54534;43.612;1.572;2023-02-28T06:54:22;5.33;;;1.73;;
67737;SDS011;54534;43.612;1.572;2023-02-28T06:56:47;2.80;;;1.43;;
67737;SDS011;54534;43.612;1.572;2023-02-28T06:59:13;2.53;;;1.37;;
67737;SDS011;54534;43.612;1.572;2023-02-28T07:01:39;4.13;;;1.53;;
67737;SDS011;54534;43.612;1.572;2023-02-28T07:04:05;5.90;;;1.80;;
67737;SDS011;54534;43.612;1.572;2023-02-28T07:06:31;2.57;;;1.63;;
67737;SDS011;54534;43.612;1.572;2023-02-28T07:08:57;4.60;;;1.70;;
67737;SDS011;54534;43.612;1.572;2023-02-28T07:11:23;6.67;;;1.90;;
67737;SDS011;54534;43.612;1.572;2023-02-28T07:13:54;28.47;;;2.87;;
67737;SDS011;54534;43.612;1.572;2023-02-28T07:16:20;7.57;;;1.92;;
67737;SDS011;54534;43.612;1.572;2023-02-28T07:18:46;7.20;;;2.47;;
67737;SDS011;54534;43.612;1.572;2023-02-28T07:21:11;7.63;;;1.87;;
67737;SDS011;54534;43.612;1.572;2023-02-28T07:23:37;17.87;;;2.00;;
67737;SDS011;54534;43.612;1.572;2023-02-28T07:26:04;8.37;;;1.60;;
67737;SDS011;54534;43.612;1.572;2023-02-28T07:28:30;4.97;;;2.07;;
67737;SDS011;54534;43.612;1.572;2023-02-28T07:30:55;9.07;;;1.83;;
67737;SDS011;54534;43.612;1.572;2023-02-28T07:33:21;14.27;;;2.40;;
67737;SDS011;54534;43.612;1.572;2023-02-28T07:35:46;5.67;;;2.40;;
67737;SDS011;54534;43.612;1.572;2023-02-28T07:38:12;10.57;;;2.20;;
67737;SDS011;54534;43.612;1.572;2023-02-28T07:40:38;5.53;;;2.30;;
67737;SDS011;54534;43.612;1.572;2023-02-28T07:43:04;3.87;;;1.60;;
67737;SDS011;54534;43.612;1.572;2023-02-28T07:45:30;2.77;;;1.77;;
67737;SDS011;54534;43.612;1.572;2023-02-28T07:47:57;4.70;;;2.10;;
67737;SDS011;54534;43.612;1.572;2023-02-28T07:50:22;7.63;;;1.70;;
67737;SDS011;54534;43.612;1.572;2023-02-28T07:52:48;10.13;;;1.97;;
67737;SDS011;54534;43.612;1.572;2023-02-28T07:55:13;6.03;;;2.20;;
67737;SDS011;54534;43.612;1.572;2023-02-28T07:57:39;2.90;;;1.47;;
67737;SDS011;54534;43.612;1.572;2023-02-28T08:00:06;6.07;;;2.00;;
67737;SDS011;54534;43.612;1.572;2023-02-28T08:02:37;9.57;;;2.10;;
67737;SDS011;54534;43.612;1.572;2023-02-28T08:05:03;5.07;;;2.00;;
67737;SDS011;54534;43.612;1.572;2023-02-28T08:07:29;4.83;;;1.90;;
67737;SDS011;54534;43.612;1.572;2023-02-28T08:09:55;3.10;;;1.67;;
67737;SDS011;54534;43.612;1.572;2023-02-28T08:12:20;3.67;;;2.10;;
67737;SDS011;54534;43.612;1.572;2023-02-28T08:14:46;2.70;;;1.77;;
67737;SDS011;54534;43.612;1.572;2023-02-28T08:17:11;2.40;;;1.70;;
67737;SDS011;54534;43.612;1.572;2023-02-28T08:19:37;5.47;;;1.93;;
67737;SDS011;54534;43.612;1.572;2023-02-28T08:22:03;5.77;;;1.90;;
67737;SDS011;54534;43.612;1.572;2023-02-28T08:24:28;6.60;;;2.23;;
67737;SDS011;54534;43.612;1.572;2023-02-28T08:26:54;2.57;;;1.87;;
67737;SDS011;54534;43.612;1.572;2023-02-28T08:29:20;4.57;;;2.00;;
67737;SDS011;54534;43.612;1.572;2023-02-28T08:31:45;3.87;;;2.10;;
67737;SDS011;54534;43.612;1.572;2023-02-28T08:34:12;4.47;;;1.93;;
67737;SDS011;54534;43.612;1.572;2023-02-28T08:36:39;3.40;;;2.10;;
67737;SDS011;54534;43.612;1.572;2023-02-28T08:39:06;3.07;;;1.70;;
67737;SDS011;54534;43.612;1.572;2023-02-28T08:41:32;2.67;;;1.83;;
67737;SDS011;54534;43.612;1.572;2023-02-28T08:43:58;7.83;;;1.90;;
67737;SDS011;54534;43.612;1.572;2023-02-28T08:46:23;3.87;;;2.40;;
67737;SDS011;54534;43.612;1.572;2023-02-28T08:48:53;3.73;;;1.73;;
67737;SDS011;54534;43.612;1.572;2023-02-28T08:51:20;5.90;;;2.00;;
67737;SDS011;54534;43.612;1.572;2023-02-28T08:53:54;1.80;;;1.67;;
67737;SDS011;54534;43.612;1.572;2023-02-28T08:56:22;1.70;;;1.53;;
67737;SDS011;54534;43.612;1.572;2023-02-28T08:58:48;2.93;;;1.60;;
67737;SDS011;54534;43.612;1.572;2023-02-28T09:01:15;3.23;;;1.80;;
67737;SDS011;54534;43.612;1.572;2023-02-28T09:03:41;1.93;;;1.53;;
67737;SDS011;54534;43.612;1.572;2023-02-28T09:06:07;2.63;;;1.90;;
67737;SDS011;54534;43.612;1.572;2023-02-28T09:08:34;2.17;;;1.70;;
67737;SDS011;54534;43.612;1.572;2023-02-28T09:10:59;3.40;;;1.97;;
67737;SDS011;54534;43.612;1.572;2023-02-28T09:13:27;2.97;;;1.97;;
67737;SDS011;54534;43.612;1.572;2023-02-28T09:15:53;1.87;;;1.60;;
67737;SDS011;54534;43.612;1.572;2023-02-28T09:18:19;2.53;;;1.90;;
67737;SDS011;54534;43.612;1.572;2023-02-28T09:20:45;2.53;;;1.60;;
67737;SDS011;54534;43.612;1.572;2023-02-28T09:23:11;3.40;;;1.60;;
67737;SDS011;54534;43.612;1.572;2023-02-28T09:25:37;2.27;;;1.97;;
67737;SDS011;54534;43.612;1.572;2023-02-28T09:28:10;3.50;;;1.87;;
67737;SDS011;54534;43.612;1.572;2023-02-28T09:30:36;2.70;;;1.83;;
67737;SDS011;54534;43.612;1.572;2023-02-28T09:33:02;2.73;;;1.63;;
67737;SDS011;54534;43.612;1.572;2023-02-28T09:35:28;1.93;;;1.70;;
67737;SDS011;54534;43.612;1.572;2023-02-28T09:37:55;3.33;;;1.73;;
67737;SDS011;54534;43.612;1.572;2023-02-28T09:40:23;3.10;;;1.80;;
67737;SDS011;54534;43.612;1.572;2023-02-28T09:42:53;3.83;;;1.80;;
67737;SDS011;54534;43.612;1.572;2023-02-28T09:47:54;1.87;;;1.50;;
67737;SDS011;54534;43.612;1.572;2023-02-28T09:53:42;20.50;;;2.30;;
67737;SDS011;54534;43.612;1.572;2023-02-28T09:56:05;6.43;;;1.90;;
67737;SDS011;54534;43.612;1.572;2023-02-28T09:58:39;4.47;;;1.60;;
67737;SDS011;54534;43.612;1.572;2023-02-28T10:07:10;10.63;;;2.47;;
67737;SDS011;54534;43.612;1.572;2023-02-28T10:09:59;3.43;;;1.77;;
67737;SDS011;54534;43.612;1.572;2023-02-28T10:12:29;2.00;;;1.70;;
67737;SDS011;54534;43.612;1.572;2023-02-28T10:14:57;2.77;;;1.63;;
67737;SDS011;54534;43.612;1.572;2023-02-28T10:17:30;5.97;;;1.77;;
67737;SDS011;54534;43.612;1.572;2023-02-28T10:20:04;2.50;;;1.60;;
67737;SDS011;54534;43.612;1.572;2023-02-28T10:22:57;1.60;;;1.50;;
67737;SDS011;54534;43.612;1.572;2023-02-28T10:25:33;2.87;;;1.33;;
67737;SDS011;54534;43.612;1.572;2023-02-28T10:28:01;2.53;;;1.50;;
67737;SDS011;54534;43.612;1.572;2023-02-28T10:30:34;2.97;;;1.43;;
67737;SDS011;54534;43.612;1.572;2023-02-28T10:33:03;3.78;;;1.70;;
67737;SDS011;54534;43.612;1.572;2023-02-28T10:35:29;1.60;;;1.50;;
67737;SDS011;54534;43.612;1.572;2023-02-28T10:37:56;2.40;;;1.80;;
67737;SDS011;54534;43.612;1.572;2023-02-28T10:45:38;3.50;;;1.50;;
67737;SDS011;54534;43.612;1.572;2023-02-28T10:53:31;3.33;;;1.40;;
67737;SDS011;54534;43.612;1.572;2023-02-28T10:56:18;1.57;;;1.47;;
67737;SDS011;54534;43.612;1.572;2023-02-28T11:01:42;2.00;;;1.40;;
67737;SDS011;54534;43.612;1.572;2023-02-28T11:04:16;2.73;;;1.73;;
67737;SDS011;54534;43.612;1.572;2023-02-28T11:06:44;1.73;;;1.60;;
67737;SDS011;54534;43.612;1.572;2023-02-28T11:09:19;2.00;;;1.77;;
67737;SDS011;54534;43.612;1.572;2023-02-28T11:11:49;1.83;;;1.30;;
67737;SDS011;54534;43.612;1.572;2023-02-28T11:14:24;1.93;;;1.60;;
67737;SDS011;54534;43.612;1.572;2023-02-28T11:16:52;4.40;;;2.10;;
67737;SDS011;54534;43.612;1.572;2023-02-28T11:19:26;2.83;;;1.50;;
67737;SDS011;54534;43.612;1.572;2023-02-28T11:21:57;3.30;;;1.60;;
67737;SDS011;54534;43.612;1.572;2023-02-28T11:24:29;1.60;;;1.50;;
67737;SDS011;54534;43.612;1.572;2023-02-28T11:26:59;1.53;;;1.40;;
67737;SDS011;54534;43.612;1.572;2023-02-28T11:29:31;3.50;;;1.40;;
67737;SDS011;54534;43.612;1.572;2023-02-28T11:34:28;7.47;;;1.90;;
67737;SDS011;54534;43.612;1.572;2023-02-28T11:36:56;1.87;;;1.60;;
67737;SDS011;54534;43.612;1.572;2023-02-28T11:39:24;1.97;;;1.37;;
67737;SDS011;54534;43.612;1.572;2023-02-28T11:45:21;4.53;;;1.77;;
67737;SDS011;54534;43.612;1.572;2023-02-28T11:51:13;4.43;;;1.30;;
67737;SDS011;54534;43.612;1.572;2023-02-28T11:56:29;3.07;;;1.53;;
67737;SDS011;54534;43.612;1.572;2023-02-28T12:04:24;5.00;;;1.47;;
67737;SDS011;54534;43.612;1.572;2023-02-28T12:07:16;4.90;;;1.53;;
67737;SDS011;54534;43.612;1.572;2023-02-28T12:10:01;1.20;;;1.10;;
67737;SDS011;54534;43.612;1.572;2023-02-28T12:26:27;5.63;;;2.27;;
67737;SDS011;54534;43.612;1.572;2023-02-28T12:28:58;2.73;;;1.53;;
67737;SDS011;54534;43.612;1.572;2023-02-28T12:31:30;2.13;;;1.10;;
67737;SDS011;54534;43.612;1.572;2023-02-28T12:34:02;4.93;;;1.93;;
67737;SDS011;54534;43.612;1.572;2023-02-28T12:36:32;1.93;;;1.30;;
67737;SDS011;54534;43.612;1.572;2023-02-28T12:39:04;1.83;;;1.17;;
67737;SDS011;54534;43.612;1.572;2023-02-28T12:41:53;1.97;;;1.17;;
67737;SDS011;54534;43.612;1.572;2023-02-28T12:44:35;1.50;;;1.40;;
67737;SDS011;54534;43.612;1.572;2023-02-28T12:47:09;1.80;;;1.37;;
67737;SDS011;54534;43.612;1.572;2023-02-28T12:49:45;3.47;;;1.67;;
67737;SDS011;54534;43.612;1.572;2023-02-28T12:52:18;7.50;;;2.07;;
67737;SDS011;54534;43.612;1.572;2023-02-28T12:57:46;5.93;;;1.57;;
67737;SDS011;54534;43.612;1.572;2023-02-28T13:00:17;7.17;;;1.57;;
67737;SDS011;54534;43.612;1.572;2023-02-28T13:10:46;1.90;;;1.37;;
67737;SDS011;54534;43.612;1.572;2023-02-28T13:13:18;1.70;;;1.60;;
67737;SDS011;54534;43.612;1.572;2023-02-28T13:16:06;1.83;;;1.43;;
67737;SDS011;54534;43.612;1.572;2023-02-28T13:21:09;3.70;;;1.30;;
67737;SDS011;54534;43.612;1.572;2023-02-28T13:26:23;3.83;;;1.60;;
67737;SDS011;54534;43.612;1.572;2023-02-28T13:34:28;1.57;;;1.17;;
67737;SDS011;54534;43.612;1.572;2023-02-28T13:47:32;5.80;;;1.40;;
67737;SDS011;54534;43.612;1.572;2023-02-28T13:52:49;2.23;;;1.60;;
67737;SDS011;54534;43.612;1.572;2023-02-28T13:55:29;1.60;;;1.40;;
67737;SDS011;54534;43.612;1.572;2023-02-28T14:06:29;1.13;;;1.03;;
67737;SDS011;54534;43.612;1.572;2023-02-28T14:16:26;3.60;;;1.40;;
67737;SDS011;54534;43.612;1.572;2023-02-28T14:31:39;1.77;;;1.40;;
67737;SDS011;54534;43.612;1.572;2023-02-28T14:37:13;2.87;;;1.40;;
67737;SDS011;54534;43.612;1.572;2023-02-28T14:39:43;1.30;;;1.20;;
67737;SDS011;54534;43.612;1.572;2023-02-28T14:42:27;1.60;;;1.43;;
67737;SDS011;54534;43.612;1.572;2023-02-28T14:45:00;1.43;;;1.33;;
67737;SDS011;54534;43.612;1.572;2023-02-28T14:47:35;1.53;;;1.43;;
67737;SDS011;54534;43.612;1.572;2023-02-28T14:50:01;1.73;;;1.50;;
67737;SDS011;54534;43.612;1.572;2023-02-28T14:52:29;1.70;;;1.50;;
67737;SDS011;54534;43.612;1.572;2023-02-28T14:54:58;2.73;;;1.50;;
67737;SDS011;54534;43.612;1.572;2023-02-28T15:02:39;1.50;;;1.40;;
67737;SDS011;54534;43.612;1.572;2023-02-28T15:07:46;1.60;;;1.50;;
67737;SDS011;54534;43.612;1.572;2023-02-28T15:12:54;2.10;;;1.87;;
67737;SDS011;54534;43.612;1.572;2023-02-28T15:18:00;1.30;;;1.20;;
67737;SDS011;54534;43.612;1.572;2023-02-28T15:20:29;2.10;;;1.90;;
67737;SDS011;54534;43.612;1.572;2023-02-28T15:22:55;2.53;;;1.57;;
67737;SDS011;54534;43.612;1.572;2023-02-28T15:25:21;2.13;;;1.60;;
67737;SDS011;54534;43.612;1.572;2023-02-28T15:27:57;2.20;;;1.93;;
67737;SDS011;54534;43.612;1.572;2023-02-28T15:30:25;3.83;;;1.60;;
67737;SDS011;54534;43.612;1.572;2023-02-28T15:33:04;2.00;;;1.80;;
67737;SDS011;54534;43.612;1.572;2023-02-28T15:35:50;1.70;;;1.60;;
67737;SDS011;54534;43.612;1.572;2023-02-28T15:40:55;2.27;;;1.87;;
67737;SDS011;54534;43.612;1.572;2023-02-28T15:45:51;4.00;;;1.37;;
67737;SDS011;54534;43.612;1.572;2023-02-28T15:50:51;1.60;;;1.50;;
67737;SDS011;54534;43.612;1.572;2023-02-28T15:53:22;2.40;;;1.57;;
67737;SDS011;54534;43.612;1.572;2023-02-28T15:58:59;1.60;;;1.40;;
67737;SDS011;54534;43.612;1.572;2023-02-28T16:01:30;2.10;;;1.50;;
67737;SDS011;54534;43.612;1.572;2023-02-28T16:03:59;1.60;;;1.50;;
67737;SDS011;54534;43.612;1.572;2023-02-28T16:08:58;1.43;;;1.37;;
67737;SDS011;54534;43.612;1.572;2023-02-28T16:11:24;1.60;;;1.50;;
67737;SDS011;54534;43.612;1.572;2023-02-28T16:13:50;3.10;;;1.70;;
67737;SDS011;54534;43.612;1.572;2023-02-28T16:16:23;1.53;;;1.40;;
67737;SDS011;54534;43.612;1.572;2023-02-28T16:18:50;1.57;;;1.47;;
67737;SDS011;54534;43.612;1.572;2023-02-28T16:21:16;1.73;;;1.57;;
67737;SDS011;54534;43.612;1.572;2023-02-28T16:23:42;3.07;;;1.40;;
67737;SDS011;54534;43.612;1.572;2023-02-28T16:26:07;1.67;;;1.50;;
67737;SDS011;54534;43.612;1.572;2023-02-28T16:28:34;1.40;;;1.30;;
67737;SDS011;54534;43.612;1.572;2023-02-28T16:31:03;1.98;;;1.42;;
67737;SDS011;54534;43.612;1.572;2023-02-28T16:33:31;1.83;;;1.50;;
67737;SDS011;54534;43.612;1.572;2023-02-28T16:35:58;1.50;;;1.40;;
67737;SDS011;54534;43.612;1.572;2023-02-28T16:38:23;1.67;;;1.43;;
67737;SDS011;54534;43.612;1.572;2023-02-28T16:40:50;1.97;;;1.80;;
67737;SDS011;54534;43.612;1.572;2023-02-28T16:43:17;2.17;;;1.83;;
67737;SDS011;54534;43.612;1.572;2023-02-28T16:45:47;1.83;;;1.60;;
67737;SDS011;54534;43.612;1.572;2023-02-28T16:48:16;1.63;;;1.53;;
67737;SDS011;54534;43.612;1.572;2023-02-28T16:50:42;2.27;;;1.97;;
67737;SDS011;54534;43.612;1.572;2023-02-28T16:53:09;2.00;;;1.70;;
67737;SDS011;54534;43.612;1.572;2023-02-28T16:55:34;1.50;;;1.40;;
67737;SDS011;54534;43.612;1.572;2023-02-28T16:58:00;1.60;;;1.50;;
67737;SDS011;54534;43.612;1.572;2023-02-28T17:00:28;1.70;;;1.50;;
67737;SDS011;54534;43.612;1.572;2023-02-28T17:02:55;2.30;;;1.57;;
67737;SDS011;54534;43.612;1.572;2023-02-28T17:05:21;1.50;;;1.40;;
67737;SDS011;54534;43.612;1.572;2023-02-28T17:07:47;4.00;;;1.57;;
67737;SDS011;54534;43.612;1.572;2023-02-28T17:10:23;2.00;;;1.63;;
67737;SDS011;54534;43.612;1.572;2023-02-28T17:12:50;5.83;;;2.10;;
67737;SDS011;54534;43.612;1.572;2023-02-28T17:15:17;3.30;;;1.67;;
67737;SDS011;54534;43.612;1.572;2023-02-28T17:17:44;2.77;;;1.90;;
67737;SDS011;54534;43.612;1.572;2023-02-28T17:20:14;3.27;;;1.50;;
67737;SDS011;54534;43.612;1.572;2023-02-28T17:22:47;9.97;;;2.10;;
67737;SDS011;54534;43.612;1.572;2023-02-28T17:25:13;7.03;;;1.97;;
67737;SDS011;54534;43.612;1.572;2023-02-28T17:27:39;3.87;;;2.77;;
67737;SDS011;54534;43.612;1.572;2023-02-28T17:30:15;4.80;;;2.33;;
67737;SDS011;54534;43.612;1.572;2023-02-28T17:32:42;9.70;;;2.67;;
67737;SDS011;54534;43.612;1.572;2023-02-28T17:35:08;16.83;;;2.47;;
67737;SDS011;54534;43.612;1.572;2023-02-28T17:37:34;13.70;;;3.20;;
67737;SDS011;54534;43.612;1.572;2023-02-28T17:40:00;14.03;;;2.70;;
67737;SDS011;54534;43.612;1.572;2023-02-28T17:42:25;13.43;;;2.50;;
67737;SDS011;54534;43.612;1.572;2023-02-28T17:44:51;11.30;;;3.47;;
67737;SDS011;54534;43.612;1.572;2023-02-28T17:47:16;19.00;;;3.13;;
67737;SDS011;54534;43.612;1.572;2023-02-28T17:49:42;21.10;;;3.80;;
67737;SDS011;54534;43.612;1.572;2023-02-28T17:52:07;11.70;;;3.60;;
67737;SDS011;54534;43.612;1.572;2023-02-28T17:54:33;17.10;;;3.70;;
67737;SDS011;54534;43.612;1.572;2023-02-28T17:56:59;15.67;;;3.40;;
67737;SDS011;54534;43.612;1.572;2023-02-28T17:59:25;26.33;;;4.97;;
67737;SDS011;54534;43.612;1.572;2023-02-28T18:01:50;13.70;;;4.10;;
67737;SDS011;54534;43.612;1.572;2023-02-28T18:04:15;20.27;;;4.30;;